sensor_id;sensor_type;location;lat;lon;timestamp;P1;durP1;ratioP1;P2;durP2;ratioP2
15689;SDS011;7945;48.816;11.506;2022-09-09T00:00:46;0.50;;;0.50;;
15689;SDS011;7945;48.816;11.506;2022-09-09T00:03:16;0.60;;;0.60;;
15689;SDS011;7945;48.816;11.506;2022-09-09T00:05:49;0.50;;;0.50;;
15689;SDS011;7945;48.816;11.506;2022-09-09T00:08:25;0.40;;;0.40;;
15689;SDS011;7945;48.816;11.506;2022-09-09T00:11:02;0.52;;;0.52;;
15689;SDS011;7945;48.816;11.506;2022-09-09T00:13:34;0.60;;;0.60;;
15689;SDS011;7945;48.816;11.506;2022-09-09T00:16:06;0.60;;;0.60;;
15689;SDS011;7945;48.816;11.506;2022-09-09T00:18:40;0.50;;;0.50;;
15689;SDS011;7945;48.816;11.506;2022-09-09T00:21:14;0.50;;;0.50;;
15689;SDS011;7945;48.816;11.506;2022-09-09T00:23:44;0.55;;;0.55;;
15689;SDS011;7945;48.816;11.506;2022-09-09T00:26:16;0.50;;;0.50;;
15689;SDS011;7945;48.816;11.506;2022-09-09T00:28:50;0.57;;;0.57;;
15689;SDS011;7945;48.816;11.506;2022-09-09T00:31:25;0.50;;;0.50;;
15689;SDS011;7945;48.816;11.506;2022-09-09T00:33:54;0.50;;;0.50;;
15689;SDS011;7945;48.816;11.506;2022-09-09T00:36:26;0.50;;;0.50;;
15689;SDS011;7945;48.816;11.506;2022-09-09T00:38:55;0.50;;;0.50;;
15689;SDS011;7945;48.816;11.506;2022-09-09T00:41:26;0.50;;;0.50;;
15689;SDS011;7945;48.816;11.506;2022-09-09T00:44:16;0.50;;;0.50;;
15689;SDS011;7945;48.816;11.506;2022-09-09T00:46:56;0.50;;;0.50;;
15689;SDS011;7945;48.816;11.506;2022-09-09T00:49:37;0.50;;;0.50;;
15689;SDS011;7945;48.816;11.506;2022-09-09T00:52:17;0.50;;;0.50;;
15689;SDS011;7945;48.816;11.506;2022-09-09T00:54:53;0.60;;;0.60;;
15689;SDS011;7945;48.816;11.506;2022-09-09T00:57:29;0.50;;;0.50;;
15689;SDS011;7945;48.816;11.506;2022-09-09T01:00:00;0.50;;;0.50;;
15689;SDS011;7945;48.816;11.506;2022-09-09T01:02:47;0.40;;;0.40;;
15689;SDS011;7945;48.816;11.506;2022-09-09T01:05:29;0.52;;;0.52;;
15689;SDS011;7945;48.816;11.506;2022-09-09T01:08:02;0.50;;;0.50;;
15689;SDS011;7945;48.816;11.506;2022-09-09T01:10:39;0.50;;;0.50;;
15689;SDS011;7945;48.816;11.506;2022-09-09T01:13:13;0.50;;;0.50;;
15689;SDS011;7945;48.816;11.506;2022-09-09T01:15:49;0.60;;;0.60;;
15689;SDS011;7945;48.816;11.506;2022-09-09T01:18:19;0.55;;;0.55;;
15689;SDS011;7945;48.816;11.506;2022-09-09T01:20:53;0.47;;;0.47;;
15689;SDS011;7945;48.816;11.506;2022-09-09T01:23:28;0.52;;;0.52;;
15689;SDS011;7945;48.816;11.506;2022-09-09T01:26:09;0.50;;;0.50;;
15689;SDS011;7945;48.816;11.506;2022-09-09T01:28:44;0.40;;;0.40;;
15689;SDS011;7945;48.816;11.506;2022-09-09T01:31:14;0.50;;;0.50;;
15689;SDS011;7945;48.816;11.506;2022-09-09T01:33:44;0.50;;;0.50;;
15689;SDS011;7945;48.816;11.506;2022-09-09T01:36:12;0.50;;;0.50;;
15689;SDS011;7945;48.816;11.506;2022-09-09T01:38:44;0.50;;;0.50;;
15689;SDS011;7945;48.816;11.506;2022-09-09T01:41:12;0.40;;;0.40;;
15689;SDS011;7945;48.816;11.506;2022-09-09T01:43:39;0.50;;;0.50;;
15689;SDS011;7945;48.816;11.506;2022-09-09T01:46:06;0.57;;;0.57;;
15689;SDS011;7945;48.816;11.506;2022-09-09T01:48:33;0.95;;;0.95;;
15689;SDS011;7945;48.816;11.506;2022-09-09T01:51:00;0.50;;;0.50;;
15689;SDS011;7945;48.816;11.506;2022-09-09T01:53:27;0.47;;;0.47;;
15689;SDS011;7945;48.816;11.506;2022-09-09T01:56:00;0.50;;;0.50;;
15689;SDS011;7945;48.816;11.506;2022-09-09T01:58:37;0.50;;;0.50;;
15689;SDS011;7945;48.816;11.506;2022-09-09T02:01:15;0.50;;;0.50;;
15689;SDS011;7945;48.816;11.506;2022-09-09T02:03:51;0.50;;;0.50;;
15689;SDS011;7945;48.816;11.506;2022-09-09T02:06:24;0.50;;;0.50;;
15689;SDS011;7945;48.816;11.506;2022-09-09T02:08:55;0.50;;;0.50;;
15689;SDS011;7945;48.816;11.506;2022-09-09T02:11:25;0.50;;;0.50;;
15689;SDS011;7945;48.816;11.506;2022-09-09T02:13:56;0.60;;;0.60;;
15689;SDS011;7945;48.816;11.506;2022-09-09T02:16:26;0.50;;;0.50;;
15689;SDS011;7945;48.816;11.506;2022-09-09T02:18:57;0.47;;;0.47;;
15689;SDS011;7945;48.816;11.506;2022-09-09T02:21:29;0.50;;;0.50;;
15689;SDS011;7945;48.816;11.506;2022-09-09T02:23:58;0.50;;;0.50;;
15689;SDS011;7945;48.816;11.506;2022-09-09T02:26:29;0.50;;;0.50;;
15689;SDS011;7945;48.816;11.506;2022-09-09T02:29:00;0.55;;;0.55;;
15689;SDS011;7945;48.816;11.506;2022-09-09T02:31:29;0.50;;;0.50;;
15689;SDS011;7945;48.816;11.506;2022-09-09T02:34:00;0.50;;;0.50;;
15689;SDS011;7945;48.816;11.506;2022-09-09T02:36:30;0.50;;;0.50;;
15689;SDS011;7945;48.816;11.506;2022-09-09T02:38:59;0.60;;;0.60;;
15689;SDS011;7945;48.816;11.506;2022-09-09T02:41:27;0.60;;;0.60;;
15689;SDS011;7945;48.816;11.506;2022-09-09T02:44:00;0.60;;;0.60;;
15689;SDS011;7945;48.816;11.506;2022-09-09T02:46:32;0.55;;;0.55;;
15689;SDS011;7945;48.816;11.506;2022-09-09T02:49:08;0.50;;;0.50;;
15689;SDS011;7945;48.816;11.506;2022-09-09T02:51:39;0.60;;;0.60;;
15689;SDS011;7945;48.816;11.506;2022-09-09T02:54:14;0.50;;;0.50;;
15689;SDS011;7945;48.816;11.506;2022-09-09T02:56:49;0.60;;;0.60;;
15689;SDS011;7945;48.816;11.506;2022-09-09T02:59:21;0.60;;;0.60;;
15689;SDS011;7945;48.816;11.506;2022-09-09T03:01:49;0.60;;;0.60;;
15689;SDS011;7945;48.816;11.506;2022-09-09T03:04:15;0.60;;;0.60;;
15689;SDS011;7945;48.816;11.506;2022-09-09T03:06:42;0.60;;;0.60;;
15689;SDS011;7945;48.816;11.506;2022-09-09T03:09:09;0.60;;;0.60;;
15689;SDS011;7945;48.816;11.506;2022-09-09T03:11:36;0.60;;;0.60;;
15689;SDS011;7945;48.816;11.506;2022-09-09T03:14:03;0.60;;;0.60;;
15689;SDS011;7945;48.816;11.506;2022-09-09T03:16:32;0.50;;;0.50;;
15689;SDS011;7945;48.816;11.506;2022-09-09T03:18:59;0.60;;;0.60;;
15689;SDS011;7945;48.816;11.506;2022-09-09T03:21:26;0.60;;;0.60;;
15689;SDS011;7945;48.816;11.506;2022-09-09T03:23:53;0.60;;;0.60;;
15689;SDS011;7945;48.816;11.506;2022-09-09T03:26:20;0.60;;;0.60;;
15689;SDS011;7945;48.816;11.506;2022-09-09T03:28:48;0.50;;;0.50;;
15689;SDS011;7945;48.816;11.506;2022-09-09T03:31:14;0.57;;;0.57;;
15689;SDS011;7945;48.816;11.506;2022-09-09T03:33:42;0.50;;;0.50;;
15689;SDS011;7945;48.816;11.506;2022-09-09T03:36:09;0.50;;;0.50;;
15689;SDS011;7945;48.816;11.506;2022-09-09T03:38:36;0.60;;;0.60;;
15689;SDS011;7945;48.816;11.506;2022-09-09T03:41:03;0.60;;;0.60;;
15689;SDS011;7945;48.816;11.506;2022-09-09T03:43:31;0.50;;;0.50;;
15689;SDS011;7945;48.816;11.506;2022-09-09T03:45:58;0.60;;;0.60;;
15689;SDS011;7945;48.816;11.506;2022-09-09T03:48:25;0.50;;;0.50;;
15689;SDS011;7945;48.816;11.506;2022-09-09T03:50:54;0.50;;;0.50;;
15689;SDS011;7945;48.816;11.506;2022-09-09T03:53:23;0.50;;;0.50;;
15689;SDS011;7945;48.816;11.506;2022-09-09T03:55:51;0.60;;;0.60;;
15689;SDS011;7945;48.816;11.506;2022-09-09T03:58:19;0.60;;;0.60;;
15689;SDS011;7945;48.816;11.506;2022-09-09T04:00:52;0.60;;;0.60;;
15689;SDS011;7945;48.816;11.506;2022-09-09T04:03:21;0.50;;;0.50;;
15689;SDS011;7945;48.816;11.506;2022-09-09T04:05:49;0.50;;;0.50;;
15689;SDS011;7945;48.816;11.506;2022-09-09T04:08:18;0.50;;;0.50;;
15689;SDS011;7945;48.816;11.506;2022-09-09T04:10:45;0.50;;;0.50;;
15689;SDS011;7945;48.816;11.506;2022-09-09T04:13:13;0.50;;;0.50;;
15689;SDS011;7945;48.816;11.506;2022-09-09T04:15:42;0.50;;;0.50;;
15689;SDS011;7945;48.816;11.506;2022-09-09T04:18:10;0.55;;;0.55;;
15689;SDS011;7945;48.816;11.506;2022-09-09T04:20:37;0.50;;;0.50;;
15689;SDS011;7945;48.816;11.506;2022-09-09T04:23:04;0.50;;;0.50;;
15689;SDS011;7945;48.816;11.506;2022-09-09T04:25:32;0.50;;;0.50;;
15689;SDS011;7945;48.816;11.506;2022-09-09T04:27:59;0.60;;;0.60;;
15689;SDS011;7945;48.816;11.506;2022-09-09T04:30:27;0.60;;;0.60;;
15689;SDS011;7945;48.816;11.506;2022-09-09T04:32:54;0.50;;;0.50;;
15689;SDS011;7945;48.816;11.506;2022-09-09T04:35:22;0.57;;;0.57;;
15689;SDS011;7945;48.816;11.506;2022-09-09T04:37:49;0.50;;;0.50;;
15689;SDS011;7945;48.816;11.506;2022-09-09T04:40:16;0.50;;;0.50;;
15689;SDS011;7945;48.816;11.506;2022-09-09T04:42:44;0.57;;;0.57;;
15689;SDS011;7945;48.816;11.506;2022-09-09T04:45:13;0.57;;;0.57;;
15689;SDS011;7945;48.816;11.506;2022-09-09T04:47:39;0.60;;;0.60;;
15689;SDS011;7945;48.816;11.506;2022-09-09T04:50:07;0.60;;;0.60;;
15689;SDS011;7945;48.816;11.506;2022-09-09T04:52:35;0.50;;;0.50;;
15689;SDS011;7945;48.816;11.506;2022-09-09T04:55:02;0.60;;;0.60;;
15689;SDS011;7945;48.816;11.506;2022-09-09T04:57:30;0.50;;;0.50;;
15689;SDS011;7945;48.816;11.506;2022-09-09T04:59:59;0.60;;;0.60;;
15689;SDS011;7945;48.816;11.506;2022-09-09T05:02:26;0.50;;;0.50;;
15689;SDS011;7945;48.816;11.506;2022-09-09T05:04:54;0.50;;;0.50;;
15689;SDS011;7945;48.816;11.506;2022-09-09T05:07:21;0.60;;;0.60;;
15689;SDS011;7945;48.816;11.506;2022-09-09T05:09:47;0.60;;;0.60;;
15689;SDS011;7945;48.816;11.506;2022-09-09T05:12:15;0.50;;;0.50;;
15689;SDS011;7945;48.816;11.506;2022-09-09T05:14:42;0.50;;;0.50;;
15689;SDS011;7945;48.816;11.506;2022-09-09T05:17:10;0.60;;;0.60;;
15689;SDS011;7945;48.816;11.506;2022-09-09T05:19:38;0.57;;;0.57;;
15689;SDS011;7945;48.816;11.506;2022-09-09T05:22:05;0.60;;;0.60;;
15689;SDS011;7945;48.816;11.506;2022-09-09T05:24:32;0.60;;;0.60;;
15689;SDS011;7945;48.816;11.506;2022-09-09T05:26:59;0.50;;;0.50;;
15689;SDS011;7945;48.816;11.506;2022-09-09T05:29:27;0.60;;;0.60;;
15689;SDS011;7945;48.816;11.506;2022-09-09T05:31:54;0.60;;;0.60;;
15689;SDS011;7945;48.816;11.506;2022-09-09T05:34:22;0.50;;;0.50;;
15689;SDS011;7945;48.816;11.506;2022-09-09T05:36:49;0.50;;;0.50;;
15689;SDS011;7945;48.816;11.506;2022-09-09T05:39:16;0.60;;;0.60;;
15689;SDS011;7945;48.816;11.506;2022-09-09T05:41:43;0.50;;;0.50;;
15689;SDS011;7945;48.816;11.506;2022-09-09T05:44:10;0.40;;;0.40;;
15689;SDS011;7945;48.816;11.506;2022-09-09T05:46:37;0.40;;;0.40;;
15689;SDS011;7945;48.816;11.506;2022-09-09T05:49:04;0.40;;;0.40;;
15689;SDS011;7945;48.816;11.506;2022-09-09T05:51:32;0.50;;;0.50;;
15689;SDS011;7945;48.816;11.506;2022-09-09T05:53:59;0.40;;;0.40;;
15689;SDS011;7945;48.816;11.506;2022-09-09T05:56:26;0.40;;;0.40;;
15689;SDS011;7945;48.816;11.506;2022-09-09T05:58:54;0.40;;;0.40;;
15689;SDS011;7945;48.816;11.506;2022-09-09T06:01:23;0.40;;;0.40;;
15689;SDS011;7945;48.816;11.506;2022-09-09T06:03:51;0.45;;;0.45;;
15689;SDS011;7945;48.816;11.506;2022-09-09T06:06:19;0.50;;;0.50;;
15689;SDS011;7945;48.816;11.506;2022-09-09T06:08:49;0.50;;;0.50;;
15689;SDS011;7945;48.816;11.506;2022-09-09T06:14:47;0.50;;;0.50;;
15689;SDS011;7945;48.816;11.506;2022-09-09T06:17:15;0.50;;;0.50;;
15689;SDS011;7945;48.816;11.506;2022-09-09T06:19:42;0.50;;;0.50;;
15689;SDS011;7945;48.816;11.506;2022-09-09T06:22:09;0.50;;;0.50;;
15689;SDS011;7945;48.816;11.506;2022-09-09T06:24:37;0.50;;;0.50;;
15689;SDS011;7945;48.816;11.506;2022-09-09T06:27:04;0.57;;;0.57;;
15689;SDS011;7945;48.816;11.506;2022-09-09T06:29:32;0.50;;;0.50;;
15689;SDS011;7945;48.816;11.506;2022-09-09T06:32:00;0.50;;;0.50;;
15689;SDS011;7945;48.816;11.506;2022-09-09T06:34:27;0.50;;;0.50;;
15689;SDS011;7945;48.816;11.506;2022-09-09T06:36:55;0.43;;;0.43;;
15689;SDS011;7945;48.816;11.506;2022-09-09T06:39:23;0.50;;;0.50;;
15689;SDS011;7945;48.816;11.506;2022-09-09T06:41:50;0.60;;;0.60;;
15689;SDS011;7945;48.816;11.506;2022-09-09T06:44:18;0.50;;;0.50;;
15689;SDS011;7945;48.816;11.506;2022-09-09T06:46:45;0.60;;;0.60;;
15689;SDS011;7945;48.816;11.506;2022-09-09T06:49:14;0.50;;;0.50;;
15689;SDS011;7945;48.816;11.506;2022-09-09T06:51:41;0.60;;;0.60;;
15689;SDS011;7945;48.816;11.506;2022-09-09T06:54:09;0.60;;;0.60;;
15689;SDS011;7945;48.816;11.506;2022-09-09T06:56:37;0.55;;;0.55;;
15689;SDS011;7945;48.816;11.506;2022-09-09T06:59:07;0.50;;;0.50;;
15689;SDS011;7945;48.816;11.506;2022-09-09T07:01:35;0.57;;;0.57;;
15689;SDS011;7945;48.816;11.506;2022-09-09T07:04:03;0.50;;;0.50;;
15689;SDS011;7945;48.816;11.506;2022-09-09T07:06:35;0.50;;;0.50;;
15689;SDS011;7945;48.816;11.506;2022-09-09T07:09:04;0.60;;;0.60;;
15689;SDS011;7945;48.816;11.506;2022-09-09T07:11:32;0.50;;;0.50;;
15689;SDS011;7945;48.816;11.506;2022-09-09T07:14:02;0.50;;;0.50;;
15689;SDS011;7945;48.816;11.506;2022-09-09T07:16:29;0.60;;;0.60;;
15689;SDS011;7945;48.816;11.506;2022-09-09T07:18:58;0.60;;;0.60;;
15689;SDS011;7945;48.816;11.506;2022-09-09T07:21:26;0.50;;;0.50;;
15689;SDS011;7945;48.816;11.506;2022-09-09T07:23:55;0.52;;;0.52;;
15689;SDS011;7945;48.816;11.506;2022-09-09T07:26:23;0.60;;;0.60;;
15689;SDS011;7945;48.816;11.506;2022-09-09T07:28:51;0.50;;;0.50;;
15689;SDS011;7945;48.816;11.506;2022-09-09T07:31:20;0.50;;;0.50;;
15689;SDS011;7945;48.816;11.506;2022-09-09T07:33:48;0.60;;;0.60;;
15689;SDS011;7945;48.816;11.506;2022-09-09T07:36:16;0.50;;;0.50;;
15689;SDS011;7945;48.816;11.506;2022-09-09T07:38:47;0.60;;;0.60;;
15689;SDS011;7945;48.816;11.506;2022-09-09T07:41:18;0.50;;;0.50;;
15689;SDS011;7945;48.816;11.506;2022-09-09T07:43:47;0.52;;;0.52;;
15689;SDS011;7945;48.816;11.506;2022-09-09T07:46:16;0.60;;;0.60;;
15689;SDS011;7945;48.816;11.506;2022-09-09T07:48:44;0.50;;;0.50;;
15689;SDS011;7945;48.816;11.506;2022-09-09T07:51:12;0.50;;;0.50;;
15689;SDS011;7945;48.816;11.506;2022-09-09T07:53:42;0.52;;;0.52;;
15689;SDS011;7945;48.816;11.506;2022-09-09T07:56:10;0.50;;;0.50;;
15689;SDS011;7945;48.816;11.506;2022-09-09T07:58:40;0.60;;;0.60;;
15689;SDS011;7945;48.816;11.506;2022-09-09T08:01:08;0.60;;;0.60;;
15689;SDS011;7945;48.816;11.506;2022-09-09T08:03:36;0.60;;;0.60;;
15689;SDS011;7945;48.816;11.506;2022-09-09T08:06:04;0.55;;;0.55;;
15689;SDS011;7945;48.816;11.506;2022-09-09T08:08:33;0.50;;;0.50;;
15689;SDS011;7945;48.816;11.506;2022-09-09T08:11:01;0.60;;;0.60;;
15689;SDS011;7945;48.816;11.506;2022-09-09T08:13:30;0.50;;;0.50;;
15689;SDS011;7945;48.816;11.506;2022-09-09T08:16:04;0.50;;;0.50;;
15689;SDS011;7945;48.816;11.506;2022-09-09T08:18:36;0.50;;;0.50;;
15689;SDS011;7945;48.816;11.506;2022-09-09T08:21:08;0.47;;;0.47;;
15689;SDS011;7945;48.816;11.506;2022-09-09T08:23:38;0.65;;;0.65;;
15689;SDS011;7945;48.816;11.506;2022-09-09T08:26:06;0.50;;;0.50;;
15689;SDS011;7945;48.816;11.506;2022-09-09T08:28:35;0.50;;;0.50;;
15689;SDS011;7945;48.816;11.506;2022-09-09T08:31:11;0.50;;;0.50;;
15689;SDS011;7945;48.816;11.506;2022-09-09T08:33:39;0.60;;;0.60;;
15689;SDS011;7945;48.816;11.506;2022-09-09T08:36:09;0.50;;;0.50;;
15689;SDS011;7945;48.816;11.506;2022-09-09T08:38:37;0.50;;;0.50;;
15689;SDS011;7945;48.816;11.506;2022-09-09T08:41:16;0.45;;;0.45;;
15689;SDS011;7945;48.816;11.506;2022-09-09T08:44:06;0.50;;;0.50;;
15689;SDS011;7945;48.816;11.506;2022-09-09T08:46:41;0.40;;;0.40;;
15689;SDS011;7945;48.816;11.506;2022-09-09T08:49:18;0.40;;;0.40;;
15689;SDS011;7945;48.816;11.506;2022-09-09T08:51:53;0.50;;;0.50;;
15689;SDS011;7945;48.816;11.506;2022-09-09T08:54:22;0.50;;;0.50;;
15689;SDS011;7945;48.816;11.506;2022-09-09T08:56:49;0.50;;;0.50;;
15689;SDS011;7945;48.816;11.506;2022-09-09T08:59:17;0.40;;;0.40;;
15689;SDS011;7945;48.816;11.506;2022-09-09T09:01:52;0.40;;;0.40;;
15689;SDS011;7945;48.816;11.506;2022-09-09T09:04:29;0.40;;;0.40;;
15689;SDS011;7945;48.816;11.506;2022-09-09T09:07:11;0.50;;;0.50;;
15689;SDS011;7945;48.816;11.506;2022-09-09T09:09:50;0.47;;;0.47;;
15689;SDS011;7945;48.816;11.506;2022-09-09T09:12:28;0.50;;;0.50;;
15689;SDS011;7945;48.816;11.506;2022-09-09T09:14:56;0.50;;;0.50;;
15689;SDS011;7945;48.816;11.506;2022-09-09T09:17:26;0.50;;;0.50;;
15689;SDS011;7945;48.816;11.506;2022-09-09T09:19:58;0.40;;;0.40;;
15689;SDS011;7945;48.816;11.506;2022-09-09T09:22:26;0.40;;;0.40;;
15689;SDS011;7945;48.816;11.506;2022-09-09T09:25:11;0.40;;;0.40;;
15689;SDS011;7945;48.816;11.506;2022-09-09T09:27:44;0.40;;;0.40;;
15689;SDS011;7945;48.816;11.506;2022-09-09T09:30:19;0.40;;;0.40;;
15689;SDS011;7945;48.816;11.506;2022-09-09T09:32:52;0.40;;;0.40;;
15689;SDS011;7945;48.816;11.506;2022-09-09T09:35:21;0.40;;;0.40;;
15689;SDS011;7945;48.816;11.506;2022-09-09T09:37:48;0.50;;;0.50;;
15689;SDS011;7945;48.816;11.506;2022-09-09T09:40:17;0.40;;;0.40;;
15689;SDS011;7945;48.816;11.506;2022-09-09T09:42:48;0.40;;;0.40;;
15689;SDS011;7945;48.816;11.506;2022-09-09T09:45:20;0.40;;;0.40;;
15689;SDS011;7945;48.816;11.506;2022-09-09T09:48:02;0.40;;;0.40;;
15689;SDS011;7945;48.816;11.506;2022-09-09T09:50:31;0.40;;;0.40;;
15689;SDS011;7945;48.816;11.506;2022-09-09T09:53:00;0.32;;;0.32;;
15689;SDS011;7945;48.816;11.506;2022-09-09T09:55:29;0.30;;;0.30;;
15689;SDS011;7945;48.816;11.506;2022-09-09T09:58:02;0.40;;;0.40;;
15689;SDS011;7945;48.816;11.506;2022-09-09T10:00:30;0.30;;;0.30;;
15689;SDS011;7945;48.816;11.506;2022-09-09T10:02:59;0.40;;;0.40;;
15689;SDS011;7945;48.816;11.506;2022-09-09T10:05:38;0.30;;;0.30;;
15689;SDS011;7945;48.816;11.506;2022-09-09T10:08:12;0.30;;;0.30;;
15689;SDS011;7945;48.816;11.506;2022-09-09T10:10:47;0.30;;;0.30;;
15689;SDS011;7945;48.816;11.506;2022-09-09T10:13:25;0.30;;;0.30;;
15689;SDS011;7945;48.816;11.506;2022-09-09T10:16:00;0.30;;;0.30;;
15689;SDS011;7945;48.816;11.506;2022-09-09T10:18:50;0.30;;;0.30;;
15689;SDS011;7945;48.816;11.506;2022-09-09T10:21:38;0.30;;;0.30;;
15689;SDS011;7945;48.816;11.506;2022-09-09T10:24:44;0.30;;;0.30;;
15689;SDS011;7945;48.816;11.506;2022-09-09T10:27:34;0.40;;;0.40;;
15689;SDS011;7945;48.816;11.506;2022-09-09T10:30:10;0.30;;;0.30;;
15689;SDS011;7945;48.816;11.506;2022-09-09T10:32:46;0.30;;;0.30;;
15689;SDS011;7945;48.816;11.506;2022-09-09T10:35:26;0.30;;;0.30;;
15689;SDS011;7945;48.816;11.506;2022-09-09T10:41:03;0.30;;;0.30;;
15689;SDS011;7945;48.816;11.506;2022-09-09T10:43:54;0.40;;;0.40;;
15689;SDS011;7945;48.816;11.506;2022-09-09T10:46:45;0.30;;;0.30;;
15689;SDS011;7945;48.816;11.506;2022-09-09T10:49:30;0.40;;;0.40;;
15689;SDS011;7945;48.816;11.506;2022-09-09T10:52:13;0.35;;;0.35;;
15689;SDS011;7945;48.816;11.506;2022-09-09T10:54:49;0.40;;;0.40;;
15689;SDS011;7945;48.816;11.506;2022-09-09T10:57:24;0.20;;;0.20;;
15689;SDS011;7945;48.816;11.506;2022-09-09T10:59:56;0.30;;;0.30;;
15689;SDS011;7945;48.816;11.506;2022-09-09T11:02:28;0.30;;;0.30;;
15689;SDS011;7945;48.816;11.506;2022-09-09T11:04:57;0.40;;;0.40;;
15689;SDS011;7945;48.816;11.506;2022-09-09T11:07:29;0.30;;;0.30;;
15689;SDS011;7945;48.816;11.506;2022-09-09T11:10:04;0.30;;;0.30;;
15689;SDS011;7945;48.816;11.506;2022-09-09T11:12:38;0.30;;;0.30;;
15689;SDS011;7945;48.816;11.506;2022-09-09T11:15:13;0.30;;;0.30;;
15689;SDS011;7945;48.816;11.506;2022-09-09T11:17:44;0.40;;;0.40;;
15689;SDS011;7945;48.816;11.506;2022-09-09T11:20:16;0.30;;;0.30;;
15689;SDS011;7945;48.816;11.506;2022-09-09T11:22:45;0.30;;;0.30;;
15689;SDS011;7945;48.816;11.506;2022-09-09T11:25:17;0.30;;;0.30;;
15689;SDS011;7945;48.816;11.506;2022-09-09T11:27:54;0.30;;;0.30;;
15689;SDS011;7945;48.816;11.506;2022-09-09T11:30:31;0.30;;;0.30;;
15689;SDS011;7945;48.816;11.506;2022-09-09T11:33:15;0.30;;;0.30;;
15689;SDS011;7945;48.816;11.506;2022-09-09T11:39:37;0.30;;;0.30;;
15689;SDS011;7945;48.816;11.506;2022-09-09T11:42:16;0.30;;;0.30;;
15689;SDS011;7945;48.816;11.506;2022-09-09T11:44:45;0.28;;;0.28;;
15689;SDS011;7945;48.816;11.506;2022-09-09T11:47:16;0.30;;;0.30;;
15689;SDS011;7945;48.816;11.506;2022-09-09T11:49:47;0.28;;;0.28;;
15689;SDS011;7945;48.816;11.506;2022-09-09T11:52:19;0.30;;;0.30;;
15689;SDS011;7945;48.816;11.506;2022-09-09T11:54:49;0.30;;;0.30;;
15689;SDS011;7945;48.816;11.506;2022-09-09T11:57:21;0.30;;;0.30;;
15689;SDS011;7945;48.816;11.506;2022-09-09T11:59:51;0.30;;;0.30;;
15689;SDS011;7945;48.816;11.506;2022-09-09T12:02:22;0.30;;;0.30;;
15689;SDS011;7945;48.816;11.506;2022-09-09T12:04:54;0.20;;;0.20;;
15689;SDS011;7945;48.816;11.506;2022-09-09T12:07:27;0.30;;;0.30;;
15689;SDS011;7945;48.816;11.506;2022-09-09T12:10:00;0.22;;;0.22;;
15689;SDS011;7945;48.816;11.506;2022-09-09T12:12:32;0.30;;;0.30;;
15689;SDS011;7945;48.816;11.506;2022-09-09T12:15:01;0.30;;;0.30;;
15689;SDS011;7945;48.816;11.506;2022-09-09T12:17:46;0.30;;;0.30;;
15689;SDS011;7945;48.816;11.506;2022-09-09T12:20:16;0.30;;;0.30;;
15689;SDS011;7945;48.816;11.506;2022-09-09T12:23:06;0.30;;;0.30;;
15689;SDS011;7945;48.816;11.506;2022-09-09T12:26:00;0.30;;;0.30;;
15689;SDS011;7945;48.816;11.506;2022-09-09T12:28:48;0.20;;;0.20;;
15689;SDS011;7945;48.816;11.506;2022-09-09T12:31:25;0.30;;;0.30;;
15689;SDS011;7945;48.816;11.506;2022-09-09T12:34:03;0.20;;;0.20;;
15689;SDS011;7945;48.816;11.506;2022-09-09T12:36:39;0.30;;;0.30;;
15689;SDS011;7945;48.816;11.506;2022-09-09T12:39:10;0.30;;;0.30;;
15689;SDS011;7945;48.816;11.506;2022-09-09T12:41:52;0.30;;;0.30;;
15689;SDS011;7945;48.816;11.506;2022-09-09T12:44:22;0.30;;;0.30;;
15689;SDS011;7945;48.816;11.506;2022-09-09T12:46:50;0.30;;;0.30;;
15689;SDS011;7945;48.816;11.506;2022-09-09T12:49:23;0.20;;;0.20;;
15689;SDS011;7945;48.816;11.506;2022-09-09T12:51:56;0.30;;;0.30;;
15689;SDS011;7945;48.816;11.506;2022-09-09T12:54:23;0.30;;;0.30;;
15689;SDS011;7945;48.816;11.506;2022-09-09T12:56:52;0.30;;;0.30;;
15689;SDS011;7945;48.816;11.506;2022-09-09T12:59:22;0.30;;;0.30;;
15689;SDS011;7945;48.816;11.506;2022-09-09T13:01:55;0.30;;;0.30;;
15689;SDS011;7945;48.816;11.506;2022-09-09T13:04:22;0.20;;;0.20;;
15689;SDS011;7945;48.816;11.506;2022-09-09T13:06:49;0.30;;;0.30;;
15689;SDS011;7945;48.816;11.506;2022-09-09T13:09:17;0.30;;;0.30;;
15689;SDS011;7945;48.816;11.506;2022-09-09T13:11:45;0.30;;;0.30;;
15689;SDS011;7945;48.816;11.506;2022-09-09T13:14:17;0.30;;;0.30;;
15689;SDS011;7945;48.816;11.506;2022-09-09T13:16:54;0.28;;;0.28;;
15689;SDS011;7945;48.816;11.506;2022-09-09T13:19:23;0.20;;;0.20;;
15689;SDS011;7945;48.816;11.506;2022-09-09T13:21:52;0.30;;;0.30;;
15689;SDS011;7945;48.816;11.506;2022-09-09T13:24:27;0.20;;;0.20;;
15689;SDS011;7945;48.816;11.506;2022-09-09T13:26:56;0.30;;;0.30;;
15689;SDS011;7945;48.816;11.506;2022-09-09T13:29:25;0.30;;;0.30;;
15689;SDS011;7945;48.816;11.506;2022-09-09T13:31:52;0.20;;;0.20;;
15689;SDS011;7945;48.816;11.506;2022-09-09T13:34:26;0.30;;;0.30;;
15689;SDS011;7945;48.816;11.506;2022-09-09T13:36:55;0.30;;;0.30;;
15689;SDS011;7945;48.816;11.506;2022-09-09T13:39:26;0.30;;;0.30;;
15689;SDS011;7945;48.816;11.506;2022-09-09T13:41:53;0.30;;;0.30;;
15689;SDS011;7945;48.816;11.506;2022-09-09T13:44:21;0.22;;;0.22;;
15689;SDS011;7945;48.816;11.506;2022-09-09T13:47:00;0.20;;;0.20;;
15689;SDS011;7945;48.816;11.506;2022-09-09T13:49:30;0.30;;;0.30;;
15689;SDS011;7945;48.816;11.506;2022-09-09T13:52:05;0.20;;;0.20;;
15689;SDS011;7945;48.816;11.506;2022-09-09T13:54:36;0.25;;;0.25;;
15689;SDS011;7945;48.816;11.506;2022-09-09T13:57:04;0.30;;;0.30;;
15689;SDS011;7945;48.816;11.506;2022-09-09T13:59:31;0.30;;;0.30;;
15689;SDS011;7945;48.816;11.506;2022-09-09T14:01:58;0.30;;;0.30;;
15689;SDS011;7945;48.816;11.506;2022-09-09T14:04:28;0.30;;;0.30;;
15689;SDS011;7945;48.816;11.506;2022-09-09T14:06:55;0.30;;;0.30;;
15689;SDS011;7945;48.816;11.506;2022-09-09T14:09:23;0.28;;;0.28;;
15689;SDS011;7945;48.816;11.506;2022-09-09T14:11:50;0.30;;;0.30;;
15689;SDS011;7945;48.816;11.506;2022-09-09T14:14:16;0.22;;;0.22;;
15689;SDS011;7945;48.816;11.506;2022-09-09T14:16:43;0.25;;;0.25;;
15689;SDS011;7945;48.816;11.506;2022-09-09T14:19:10;0.30;;;0.30;;
15689;SDS011;7945;48.816;11.506;2022-09-09T14:21:38;0.35;;;0.35;;
15689;SDS011;7945;48.816;11.506;2022-09-09T14:24:05;0.20;;;0.20;;
15689;SDS011;7945;48.816;11.506;2022-09-09T14:26:32;0.30;;;0.30;;
15689;SDS011;7945;48.816;11.506;2022-09-09T14:28:59;0.30;;;0.30;;
15689;SDS011;7945;48.816;11.506;2022-09-09T14:31:26;0.30;;;0.30;;
15689;SDS011;7945;48.816;11.506;2022-09-09T14:33:53;0.20;;;0.20;;
15689;SDS011;7945;48.816;11.506;2022-09-09T14:36:20;0.30;;;0.30;;
15689;SDS011;7945;48.816;11.506;2022-09-09T14:38:49;0.30;;;0.30;;
15689;SDS011;7945;48.816;11.506;2022-09-09T14:41:17;0.30;;;0.30;;
15689;SDS011;7945;48.816;11.506;2022-09-09T14:43:47;0.30;;;0.30;;
15689;SDS011;7945;48.816;11.506;2022-09-09T14:46:15;0.40;;;0.40;;
15689;SDS011;7945;48.816;11.506;2022-09-09T14:48:43;0.40;;;0.40;;
15689;SDS011;7945;48.816;11.506;2022-09-09T14:51:10;0.30;;;0.30;;
15689;SDS011;7945;48.816;11.506;2022-09-09T14:53:38;0.30;;;0.30;;
15689;SDS011;7945;48.816;11.506;2022-09-09T14:56:08;0.32;;;0.32;;
15689;SDS011;7945;48.816;11.506;2022-09-09T14:58:36;0.30;;;0.30;;
15689;SDS011;7945;48.816;11.506;2022-09-09T15:01:04;0.30;;;0.30;;
15689;SDS011;7945;48.816;11.506;2022-09-09T15:03:32;0.30;;;0.30;;
15689;SDS011;7945;48.816;11.506;2022-09-09T15:06:04;0.20;;;0.20;;
15689;SDS011;7945;48.816;11.506;2022-09-09T15:08:31;0.30;;;0.30;;
15689;SDS011;7945;48.816;11.506;2022-09-09T15:10:58;0.30;;;0.30;;
15689;SDS011;7945;48.816;11.506;2022-09-09T15:13:28;0.30;;;0.30;;
15689;SDS011;7945;48.816;11.506;2022-09-09T15:15:54;0.30;;;0.30;;
15689;SDS011;7945;48.816;11.506;2022-09-09T15:18:23;0.30;;;0.30;;
15689;SDS011;7945;48.816;11.506;2022-09-09T15:20:50;0.30;;;0.30;;